Terminal Aerodrome Forecast
Issued by NWS

Home | Current Version | Previous Version | Text Only | Print | Product List | Glossary On
Versions: 1 2 3 4 5 6 7 8 9 10 11 12 13 14 15 16 17 18 19
000
FTUS43 KGRB 241347 AAB
TAFCWA
TAF AMD
KCWA 241347Z 2414/2512 16005KT 1/2SM FG OVC003
     FM241500 16008KT 5SM BR SCT004 OVC012
     FM241600 21008KT P6SM SCT012 BKN025
     FM241700 27010G17KT P6SM BKN035
     FM241900 27011G19KT P6SM SCT045
     FM242100 28012G21KT P6SM SCT200
     FM250200 28008KT P6SM FEW250=

USA.gov is the U.S. government's official web portal to all federal, state and local government web resources and services.